createdAt,value
2022-12-25T00:02:10.634Z,112.32
2022-12-25T00:04:40.659Z,123.88
2022-12-25T00:07:08.895Z,124.57
2022-12-25T00:09:35.818Z,118.28
2022-12-25T00:12:04.970Z,117.78
2022-12-25T00:14:36.608Z,130.77
2022-12-25T00:17:07.976Z,116.80
2022-12-25T00:22:07.928Z,126.53
2022-12-25T00:24:36.147Z,99.13
2022-12-25T00:27:03.136Z,125.85
2022-12-25T00:29:30.932Z,122.25
2022-12-25T00:32:04.785Z,128.30
2022-12-25T00:34:31.917Z,119.05
2022-12-25T00:37:01.616Z,126.43
2022-12-25T00:39:30.584Z,118.70
2022-12-25T00:42:02.237Z,125.55
2022-12-25T00:44:31.972Z,123.15
2022-12-25T00:47:01.633Z,136.88
2022-12-25T00:49:29.999Z,115.55
2022-12-25T00:52:00.530Z,138.02
2022-12-25T00:54:27.519Z,102.53
2022-12-25T00:56:54.425Z,110.47
2022-12-25T00:59:33.984Z,109.78
2022-12-25T01:02:01.662Z,127.07
2022-12-25T01:04:30.943Z,136.15
2022-12-25T01:06:59.933Z,120.22
2022-12-25T01:09:26.776Z,123.95
2022-12-25T01:11:53.568Z,149.80
2022-12-25T01:14:20.507Z,140.52
2022-12-25T01:16:48.892Z,129.52
2022-12-25T01:19:19.129Z,140.48
2022-12-25T01:21:46.519Z,146.13
2022-12-25T01:24:18.432Z,121.20
2022-12-25T01:26:56.354Z,133.50
2022-12-25T01:29:32.692Z,120.78
2022-12-25T01:32:06.592Z,127.90
2022-12-25T01:34:38.916Z,114.25
2022-12-25T01:37:05.811Z,126.80
2022-12-25T01:39:34.073Z,128.32
2022-12-25T01:42:06.842Z,114.03
2022-12-25T01:45:21.247Z,103.32
2022-12-25T01:47:50.813Z,95.68
2022-12-25T01:50:20.653Z,123.25
2022-12-25T01:52:50.374Z,98.63
2022-12-25T01:55:25.446Z,107.68
2022-12-25T01:57:56.090Z,115.47
2022-12-25T02:00:25.523Z,127.40
2022-12-25T02:02:55.620Z,112.57
2022-12-25T02:05:27.212Z,117.35
2022-12-25T02:08:07.672Z,96.35
2022-12-25T02:10:38.189Z,123.72
2022-12-25T02:13:06.370Z,115.60
2022-12-25T02:15:46.506Z,132.88
2022-12-25T02:18:30.431Z,127.25
2022-12-25T02:21:35.997Z,113.60
2022-12-25T02:24:33.693Z,110.90
2022-12-25T02:27:16.923Z,111.10
2022-12-25T02:29:56.627Z,110.10
2022-12-25T02:32:43.551Z,118.20
2022-12-25T02:38:41.403Z,116.72
2022-12-25T02:47:36.003Z,118.72
2022-12-25T02:53:03.574Z,94.80
2022-12-25T02:55:49.595Z,117.78
2022-12-25T02:58:28.674Z,111.78
2022-12-25T03:01:04.150Z,108.82
2022-12-25T03:03:44.205Z,131.30
2022-12-25T03:06:20.528Z,107.45
2022-12-25T03:08:55.533Z,116.07
2022-12-25T03:11:33.903Z,128.60
2022-12-25T03:14:15.329Z,118.85
2022-12-25T03:16:51.167Z,110.03
2022-12-25T03:19:28.686Z,103.55
2022-12-25T03:21:56.400Z,112.45
2022-12-25T03:24:27.512Z,104.90
2022-12-25T03:26:56.729Z,123.88
2022-12-25T03:29:32.685Z,115.18
2022-12-25T03:32:24.344Z,97.47
2022-12-25T03:37:56.229Z,111.97
2022-12-25T03:40:39.837Z,109.57
2022-12-25T03:43:22.389Z,105.53
2022-12-25T03:46:03.922Z,122.63
2022-12-25T03:51:30.097Z,119.20
2022-12-25T03:54:13.435Z,103.55
2022-12-25T03:56:50.989Z,120.28
2022-12-25T03:59:31.505Z,107.82
2022-12-25T04:01:58.740Z,126.53
2022-12-25T04:07:29.669Z,138.25
2022-12-25T04:10:02.526Z,130.73
2022-12-25T04:12:44.232Z,135.48
2022-12-25T04:15:13.570Z,148.60
2022-12-25T04:17:47.980Z,136.15
2022-12-25T04:20:16.913Z,153.25
2022-12-25T04:23:02.476Z,144.75
2022-12-25T04:25:39.401Z,140.07
2022-12-25T04:28:09.136Z,129.73
2022-12-25T04:30:38.908Z,123.63
2022-12-25T04:33:11.661Z,150.13
2022-12-25T04:35:55.135Z,126.63
2022-12-25T04:38:23.528Z,142.48
2022-12-25T04:40:58.496Z,117.70
2022-12-25T04:43:30.392Z,124.88
2022-12-25T04:46:02.257Z,135.90
2022-12-25T04:48:37.663Z,114.30
2022-12-25T04:51:24.978Z,119.05
2022-12-25T04:54:14.271Z,110.03
2022-12-25T04:56:45.522Z,106.55
2022-12-25T04:59:28.024Z,111.95
2022-12-25T05:02:13.773Z,112.28
2022-12-25T05:04:59.577Z,120.97
2022-12-25T05:07:42.286Z,123.72
2022-12-25T05:10:41.420Z,147.88
2022-12-25T05:13:20.807Z,137.60
2022-12-25T05:16:10.288Z,127.15
2022-12-25T05:18:40.133Z,150.68
2022-12-25T05:21:23.350Z,158.93
2022-12-25T05:24:06.968Z,141.93
2022-12-25T05:27:07.532Z,157.05
2022-12-25T05:29:48.376Z,185.23
2022-12-25T05:32:56.341Z,160.02
2022-12-25T05:35:31.861Z,178.40
2022-12-25T05:38:17.873Z,162.82
2022-12-25T05:40:58.174Z,164.55
2022-12-25T05:44:07.940Z,159.80
2022-12-25T05:46:46.093Z,162.25
2022-12-25T05:49:19.949Z,158.63
2022-12-25T05:54:49.256Z,135.77
2022-12-25T05:57:43.050Z,147.95
2022-12-25T06:00:21.815Z,138.00
2022-12-25T06:02:54.441Z,131.80
2022-12-25T06:05:23.282Z,150.55
2022-12-25T06:07:55.140Z,127.88
2022-12-25T06:10:24.203Z,137.63
2022-12-25T06:13:02.399Z,125.63
2022-12-25T06:15:40.093Z,133.68
2022-12-25T06:23:58.536Z,120.75
2022-12-25T06:26:44.393Z,112.18
2022-12-25T06:29:21.079Z,118.97
2022-12-25T06:32:07.401Z,118.88
2022-12-25T06:34:37.292Z,117.00
2022-12-25T06:40:07.307Z,117.45
2022-12-25T06:45:19.052Z,120.83
2022-12-25T06:47:51.372Z,119.18
2022-12-25T06:53:17.798Z,121.43
2022-12-25T06:55:52.769Z,122.90
2022-12-25T06:58:28.447Z,111.72
2022-12-25T07:03:51.712Z,113.25
2022-12-25T07:06:18.755Z,100.40
2022-12-25T07:08:51.293Z,106.13
2022-12-25T07:11:30.973Z,108.97
2022-12-25T07:14:05.808Z,111.15
2022-12-25T07:16:32.876Z,101.25
2022-12-25T07:19:03.892Z,110.60
2022-12-25T07:21:36.581Z,88.75
2022-12-25T07:24:08.873Z,105.78
2022-12-25T07:26:44.800Z,105.15
2022-12-25T07:29:16.561Z,88.90
2022-12-25T07:31:49.669Z,81.93
2022-12-25T07:34:26.078Z,81.55
2022-12-25T07:37:01.140Z,91.57
2022-12-25T07:39:39.965Z,98.95
2022-12-25T07:42:25.024Z,75.55
2022-12-25T07:45:07.757Z,88.15
2022-12-25T07:48:02.699Z,90.20
2022-12-25T07:50:40.181Z,76.35
2022-12-25T07:53:18.943Z,73.60
2022-12-25T07:56:02.409Z,77.50
2022-12-25T07:58:42.103Z,76.88
2022-12-25T08:01:26.707Z,60.55
2022-12-25T08:04:10.359Z,69.65
2022-12-25T08:06:43.724Z,78.05
2022-12-25T08:09:19.383Z,65.63
2022-12-25T08:11:53.838Z,66.13
2022-12-25T08:14:27.948Z,61.88
2022-12-25T08:17:07.414Z,68.43
2022-12-25T08:19:39.194Z,75.75
2022-12-25T08:22:15.403Z,69.70
2022-12-25T08:24:55.138Z,65.15
2022-12-25T08:27:25.077Z,67.45
2022-12-25T08:29:57.825Z,65.13
2022-12-25T08:32:39.807Z,75.03
2022-12-25T08:35:11.716Z,54.28
2022-12-25T08:37:42.739Z,64.88
2022-12-25T08:40:13.138Z,59.20
2022-12-25T08:42:47.759Z,61.58
2022-12-25T08:45:34.749Z,60.45
2022-12-25T08:48:04.971Z,57.72
2022-12-25T08:50:37.017Z,52.85
2022-12-25T08:53:10.912Z,51.63
2022-12-25T08:55:47.830Z,49.17
2022-12-25T08:58:19.879Z,47.58
2022-12-25T09:00:49.917Z,43.83
2022-12-25T09:03:27.256Z,43.95
2022-12-25T09:09:16.507Z,36.60
2022-12-25T09:11:50.973Z,37.70
2022-12-25T09:14:19.480Z,39.60
2022-12-25T09:16:49.208Z,40.25
2022-12-25T09:19:31.516Z,35.05
2022-12-25T09:21:58.281Z,41.13
2022-12-25T09:24:26.647Z,34.50
2022-12-25T09:26:55.431Z,48.70
2022-12-25T09:33:26.514Z,46.65
2022-12-25T09:40:58.193Z,40.63
2022-12-25T10:10:44.244Z,36.25
2022-12-25T10:19:56.120Z,34.28
2022-12-25T10:22:49.593Z,28.80
2022-12-25T10:25:55.277Z,33.85
2022-12-25T10:28:29.783Z,21.55
2022-12-25T10:31:03.620Z,26.63
2022-12-25T10:33:31.101Z,25.25
2022-12-25T10:35:58.286Z,21.17
2022-12-25T10:38:25.209Z,20.80
2022-12-25T10:41:08.668Z,20.85
2022-12-25T10:43:42.300Z,17.98
2022-12-25T10:46:20.736Z,21.75
2022-12-25T10:48:56.427Z,21.35
2022-12-25T10:54:32.763Z,19.70
2022-12-25T10:57:15.121Z,14.60
2022-12-25T11:00:25.013Z,17.48
2022-12-25T11:03:32.212Z,14.85
2022-12-25T11:06:35.422Z,18.75
2022-12-25T11:16:29.517Z,16.10
2022-12-25T11:29:38.566Z,17.35
2022-12-25T11:36:09.991Z,23.27
2022-12-25T12:00:01.575Z,16.35
2022-12-25T12:02:35.233Z,23.50
2022-12-25T12:05:33.273Z,20.85
2022-12-25T12:08:17.345Z,22.55
2022-12-25T12:14:31.999Z,18.58
2022-12-25T12:17:16.314Z,20.10
2022-12-25T12:19:53.203Z,17.58
2022-12-25T12:25:54.705Z,20.98
2022-12-25T12:29:02.027Z,18.00
2022-12-25T12:32:13.131Z,21.42
2022-12-25T12:35:04.192Z,19.02
2022-12-25T12:46:46.142Z,22.27
2022-12-25T12:49:37.032Z,16.92
2022-12-25T12:52:44.752Z,17.30
2022-12-25T13:02:05.804Z,20.33
2022-12-25T13:14:16.604Z,18.80
2022-12-25T13:16:54.803Z,19.17
2022-12-25T13:19:53.153Z,15.45
2022-12-25T13:22:39.666Z,20.98
2022-12-25T13:25:24.200Z,21.48
2022-12-25T13:28:00.585Z,19.60
2022-12-25T13:30:43.178Z,24.67
2022-12-25T13:33:18.709Z,26.88
2022-12-25T13:36:02.208Z,22.88
2022-12-25T13:38:31.835Z,26.23
2022-12-25T13:41:04.277Z,27.77
2022-12-25T13:43:31.171Z,24.92
2022-12-25T13:45:58.055Z,17.65
2022-12-25T13:48:25.640Z,17.67
2022-12-25T13:50:58.100Z,16.20
2022-12-25T13:53:35.547Z,20.67
2022-12-25T13:56:16.843Z,19.75
2022-12-25T13:58:53.482Z,17.45
2022-12-25T14:01:38.476Z,20.42
2022-12-25T14:04:20.628Z,16.50
2022-12-25T14:10:16.416Z,18.73
2022-12-25T14:12:49.527Z,23.40
2022-12-25T14:15:30.998Z,18.17
2022-12-25T14:18:05.953Z,21.70
2022-12-25T14:20:58.381Z,21.50
2022-12-25T14:23:41.846Z,18.52
2022-12-25T14:26:19.231Z,22.00
2022-12-25T14:28:50.477Z,16.42
2022-12-25T14:31:20.774Z,23.50
2022-12-25T14:33:51.436Z,21.85
2022-12-25T14:36:18.989Z,15.90
2022-12-25T14:38:57.443Z,16.15
2022-12-25T14:41:29.161Z,18.48
2022-12-25T14:43:57.461Z,15.65
2022-12-25T14:46:26.442Z,15.93
2022-12-25T14:49:00.177Z,15.95
2022-12-25T14:51:29.563Z,17.42
2022-12-25T14:53:58.210Z,15.05
2022-12-25T14:56:29.483Z,18.05
2022-12-25T14:58:59.984Z,17.48
2022-12-25T15:01:30.303Z,17.00
2022-12-25T15:04:08.822Z,21.67
2022-12-25T15:06:40.572Z,17.63
2022-12-25T15:09:15.865Z,21.85
2022-12-25T15:11:42.637Z,16.35
2022-12-25T15:14:12.073Z,19.98
2022-12-25T15:16:41.845Z,22.50
2022-12-25T15:19:13.193Z,22.85
2022-12-25T15:21:40.349Z,29.33
2022-12-25T15:24:11.430Z,24.08
2022-12-25T15:26:38.229Z,24.25
2022-12-25T15:29:05.350Z,24.85
2022-12-25T15:31:48.408Z,23.17
2022-12-25T15:34:28.219Z,23.90
2022-12-25T15:36:57.428Z,24.70
2022-12-25T15:39:24.343Z,23.67
2022-12-25T15:41:52.881Z,25.17
2022-12-25T15:44:20.722Z,22.83
2022-12-25T15:46:51.911Z,26.27
2022-12-25T15:49:19.009Z,22.52
2022-12-25T15:51:46.921Z,23.70
2022-12-25T15:54:14.753Z,32.70
2022-12-25T15:56:45.493Z,22.42
2022-12-25T15:59:13.981Z,27.67
2022-12-25T16:01:44.546Z,31.63
2022-12-25T16:04:12.684Z,36.30
2022-12-25T16:06:42.419Z,36.53
2022-12-25T16:09:11.312Z,31.60
2022-12-25T16:11:38.283Z,48.05
2022-12-25T16:14:05.947Z,28.27
2022-12-25T16:16:54.991Z,34.65
2022-12-25T16:19:25.794Z,40.42
2022-12-25T16:22:17.769Z,36.28
2022-12-25T16:24:57.864Z,36.15
2022-12-25T16:27:29.202Z,58.97
2022-12-25T16:30:01.945Z,39.25
2022-12-25T16:32:31.394Z,94.32
2022-12-25T16:35:04.827Z,63.60
2022-12-25T16:37:31.698Z,56.83
2022-12-25T16:40:00.775Z,65.57
2022-12-25T16:42:27.725Z,36.63
2022-12-25T16:44:54.504Z,38.55
2022-12-25T16:47:21.655Z,55.10
2022-12-25T16:49:50.423Z,38.60
2022-12-25T16:52:19.581Z,50.63
2022-12-25T16:54:48.678Z,43.08
2022-12-25T16:57:18.153Z,48.58
2022-12-25T16:59:50.907Z,39.97
2022-12-25T17:02:23.045Z,57.88
2022-12-25T17:04:54.921Z,60.22
2022-12-25T17:07:23.593Z,42.65
2022-12-25T17:09:50.427Z,53.42
2022-12-25T17:12:19.143Z,44.47
2022-12-25T17:14:51.087Z,58.13
2022-12-25T17:17:17.879Z,83.53
2022-12-25T17:19:46.839Z,51.97
2022-12-25T17:22:14.041Z,35.28
2022-12-25T17:24:42.316Z,73.60
2022-12-25T17:27:13.876Z,32.42
2022-12-25T17:29:43.711Z,42.70
2022-12-25T17:32:12.962Z,54.28
2022-12-25T17:34:42.467Z,59.03
2022-12-25T17:37:15.221Z,57.72
2022-12-25T17:39:44.002Z,55.50
2022-12-25T17:42:10.811Z,69.60
2022-12-25T17:44:46.834Z,40.13
2022-12-25T17:47:13.776Z,79.13
2022-12-25T17:49:43.562Z,70.55
2022-12-25T17:52:10.338Z,51.08
2022-12-25T17:54:37.399Z,84.93
2022-12-25T17:57:05.954Z,96.10
2022-12-25T17:59:32.937Z,85.05
2022-12-25T18:02:02.565Z,77.70
2022-12-25T18:04:34.365Z,93.63
2022-12-25T18:07:03.889Z,101.15
2022-12-25T18:09:30.618Z,96.32
2022-12-25T18:11:57.664Z,68.32
2022-12-25T18:14:26.002Z,102.72
2022-12-25T18:16:54.837Z,90.05
2022-12-25T18:19:21.752Z,79.72
2022-12-25T18:21:51.691Z,95.78
2022-12-25T18:24:20.768Z,101.28
2022-12-25T18:26:50.805Z,80.88
2022-12-25T18:29:20.271Z,59.90
2022-12-25T18:31:53.507Z,44.58
2022-12-25T18:34:23.398Z,41.15
2022-12-25T18:36:59.417Z,68.93
2022-12-25T18:39:33.540Z,70.35
2022-12-25T18:42:16.939Z,75.50
2022-12-25T18:44:47.803Z,82.80
2022-12-25T18:47:22.399Z,98.10
2022-12-25T18:49:52.054Z,93.07
2022-12-25T18:52:48.000Z,98.93
2022-12-25T18:55:16.654Z,70.55
2022-12-25T18:57:46.373Z,93.43
2022-12-25T19:00:16.148Z,69.40
2022-12-25T19:02:54.424Z,99.65
2022-12-25T19:05:24.415Z,87.82
2022-12-25T19:08:08.400Z,92.40
2022-12-25T19:10:39.707Z,121.43
2022-12-25T19:13:07.585Z,127.07
2022-12-25T19:15:43.664Z,141.85
2022-12-25T19:18:14.780Z,85.60
2022-12-25T19:20:42.917Z,116.70
2022-12-25T19:23:18.640Z,82.10
2022-12-25T19:25:50.023Z,115.57
2022-12-25T19:30:55.262Z,124.20
2022-12-25T19:33:30.456Z,127.88
2022-12-25T19:36:21.502Z,165.20
2022-12-25T19:39:05.280Z,93.40
2022-12-25T19:41:49.901Z,136.85
2022-12-25T19:44:31.768Z,81.25
2022-12-25T19:47:10.420Z,180.60
2022-12-25T19:50:03.699Z,157.82
2022-12-25T19:52:31.739Z,159.85
2022-12-25T19:55:12.939Z,190.35
2022-12-25T19:57:45.095Z,107.53
2022-12-25T20:00:12.613Z,106.90
2022-12-25T20:02:40.017Z,87.95
2022-12-25T20:05:22.423Z,124.97
2022-12-25T20:07:56.552Z,114.13
2022-12-25T20:10:33.305Z,126.00
2022-12-25T20:13:06.624Z,130.25
2022-12-25T20:15:34.224Z,108.97
2022-12-25T20:18:16.484Z,148.40
2022-12-25T20:21:00.028Z,93.10
2022-12-25T20:23:50.685Z,121.53
2022-12-25T20:26:19.550Z,211.18
2022-12-25T20:28:46.608Z,196.27
2022-12-25T20:31:18.554Z,178.43
2022-12-25T20:33:48.654Z,147.90
2022-12-25T20:36:16.897Z,136.13
2022-12-25T20:38:43.796Z,168.45
2022-12-25T20:41:29.648Z,182.70
2022-12-25T20:44:02.613Z,178.30
2022-12-25T20:46:29.932Z,225.25
2022-12-25T20:48:57.060Z,211.68
2022-12-25T20:51:26.128Z,234.20
2022-12-25T20:53:53.903Z,224.18
2022-12-25T20:56:23.875Z,202.57
2022-12-25T20:58:53.662Z,191.98
2022-12-25T21:01:22.314Z,203.80
2022-12-25T21:03:52.014Z,201.75
2022-12-25T21:06:19.836Z,178.75
2022-12-25T21:08:50.379Z,211.38
2022-12-25T21:11:19.367Z,175.45
2022-12-25T21:13:50.443Z,267.00
2022-12-25T21:16:20.178Z,235.20
2022-12-25T21:18:48.810Z,199.63
2022-12-25T21:21:17.904Z,169.80
2022-12-25T21:23:46.996Z,259.33
2022-12-25T21:26:17.441Z,379.70
2022-12-25T21:28:57.668Z,360.60
2022-12-25T21:31:32.121Z,408.92
2022-12-25T21:34:05.234Z,196.48
2022-12-25T21:36:38.751Z,469.00
2022-12-25T21:39:09.299Z,214.60
2022-12-25T21:42:00.580Z,218.63
2022-12-25T21:44:27.558Z,389.42
2022-12-25T21:46:54.581Z,382.60
2022-12-25T21:49:21.628Z,209.57
2022-12-25T21:51:48.454Z,497.58
2022-12-25T21:54:16.087Z,262.50
2022-12-25T21:56:45.794Z,287.42
2022-12-25T21:59:16.749Z,244.30
2022-12-25T22:01:44.268Z,185.93
2022-12-25T22:04:12.681Z,262.27
2022-12-25T22:06:41.825Z,370.27
2022-12-25T22:09:09.778Z,381.77
2022-12-25T22:11:36.785Z,355.05
2022-12-25T22:14:06.094Z,184.52
2022-12-25T22:16:34.364Z,201.70
2022-12-25T22:19:04.284Z,268.20
2022-12-25T22:21:33.895Z,199.48
2022-12-25T22:24:00.942Z,249.63
2022-12-25T22:26:37.221Z,206.20
2022-12-25T22:29:04.239Z,199.05
2022-12-25T22:31:32.947Z,216.70
2022-12-25T22:34:04.308Z,252.57
2022-12-25T22:39:01.579Z,184.43
2022-12-25T22:41:33.424Z,214.25
2022-12-25T22:44:16.907Z,188.32
2022-12-25T22:46:50.718Z,151.73
2022-12-25T22:49:19.671Z,113.72
2022-12-25T22:52:00.874Z,108.10
2022-12-25T22:54:30.374Z,155.95
2022-12-25T22:56:58.281Z,130.32
2022-12-25T22:59:31.764Z,179.15
2022-12-25T23:02:02.718Z,209.05
2022-12-25T23:04:34.067Z,122.07
2022-12-25T23:07:05.125Z,135.80
2022-12-25T23:09:34.812Z,173.30
2022-12-25T23:12:01.865Z,128.18
2022-12-25T23:14:28.680Z,236.55
2022-12-25T23:16:56.731Z,374.55
2022-12-25T23:19:24.233Z,191.88
2022-12-25T23:21:53.025Z,179.73
2022-12-25T23:24:21.678Z,251.57
2022-12-25T23:26:52.117Z,154.30
2022-12-25T23:29:18.983Z,145.48
2022-12-25T23:31:45.729Z,145.93
2022-12-25T23:34:13.462Z,236.80
2022-12-25T23:36:40.209Z,174.70
2022-12-25T23:39:12.462Z,212.57
2022-12-25T23:41:42.179Z,288.08
2022-12-25T23:44:09.666Z,223.55
2022-12-25T23:46:42.118Z,211.18
2022-12-25T23:49:24.658Z,142.18
2022-12-25T23:51:52.036Z,185.73
2022-12-25T23:54:27.549Z,171.20
2022-12-25T23:56:58.490Z,144.95
2022-12-25T23:59:31.809Z,246.35
